sensor_id;sensor_type;location;lat;lon;timestamp;P1;durP1;ratioP1;P2;durP2;ratioP2
35777;SDS011;21899;42.662;23.316;2022-09-17T00:01:51;12.55;;;7.15;;
35777;SDS011;21899;42.662;23.316;2022-09-17T00:04:17;11.95;;;7.50;;
35777;SDS011;21899;42.662;23.316;2022-09-17T00:06:43;14.52;;;8.00;;
35777;SDS011;21899;42.662;23.316;2022-09-17T00:09:08;15.60;;;6.93;;
35777;SDS011;21899;42.662;23.316;2022-09-17T00:11:35;13.77;;;8.18;;
35777;SDS011;21899;42.662;23.316;2022-09-17T00:14:03;13.30;;;7.95;;
35777;SDS011;21899;42.662;23.316;2022-09-17T00:16:35;15.10;;;7.30;;
35777;SDS011;21899;42.662;23.316;2022-09-17T00:19:04;14.27;;;7.88;;
35777;SDS011;21899;42.662;23.316;2022-09-17T00:21:31;14.30;;;7.60;;
35777;SDS011;21899;42.662;23.316;2022-09-17T00:23:58;14.27;;;6.93;;
35777;SDS011;21899;42.662;23.316;2022-09-17T00:26:26;11.68;;;7.05;;
35777;SDS011;21899;42.662;23.316;2022-09-17T00:28:53;11.18;;;6.93;;
35777;SDS011;21899;42.662;23.316;2022-09-17T00:31:20;15.73;;;7.55;;
35777;SDS011;21899;42.662;23.316;2022-09-17T00:33:47;13.00;;;7.80;;
35777;SDS011;21899;42.662;23.316;2022-09-17T00:36:13;11.25;;;7.40;;
35777;SDS011;21899;42.662;23.316;2022-09-17T00:38:38;11.73;;;7.18;;
35777;SDS011;21899;42.662;23.316;2022-09-17T00:41:04;11.05;;;6.95;;
35777;SDS011;21899;42.662;23.316;2022-09-17T00:43:35;13.38;;;6.70;;
35777;SDS011;21899;42.662;23.316;2022-09-17T00:46:01;11.27;;;7.00;;
35777;SDS011;21899;42.662;23.316;2022-09-17T00:48:28;14.63;;;7.88;;
35777;SDS011;21899;42.662;23.316;2022-09-17T00:50:54;13.57;;;6.88;;
35777;SDS011;21899;42.662;23.316;2022-09-17T00:53:20;16.00;;;7.90;;
35777;SDS011;21899;42.662;23.316;2022-09-17T00:56:30;11.27;;;7.68;;
35777;SDS011;21899;42.662;23.316;2022-09-17T00:58:55;12.32;;;8.13;;
35777;SDS011;21899;42.662;23.316;2022-09-17T01:01:21;16.58;;;7.13;;
35777;SDS011;21899;42.662;23.316;2022-09-17T01:03:47;10.80;;;7.43;;
35777;SDS011;21899;42.662;23.316;2022-09-17T01:17:01;13.93;;;7.43;;
35777;SDS011;21899;42.662;23.316;2022-09-17T01:31:03;16.70;;;7.55;;
35777;SDS011;21899;42.662;23.316;2022-09-17T01:39:04;14.27;;;8.85;;
35777;SDS011;21899;42.662;23.316;2022-09-17T01:41:44;14.38;;;7.93;;
35777;SDS011;21899;42.662;23.316;2022-09-17T01:44:29;14.35;;;8.05;;
35777;SDS011;21899;42.662;23.316;2022-09-17T01:47:17;17.45;;;9.07;;
35777;SDS011;21899;42.662;23.316;2022-09-17T01:49:50;14.98;;;8.32;;
35777;SDS011;21899;42.662;23.316;2022-09-17T01:52:21;16.83;;;8.32;;
35777;SDS011;21899;42.662;23.316;2022-09-17T01:54:50;14.02;;;8.25;;
35777;SDS011;21899;42.662;23.316;2022-09-17T02:00:03;18.20;;;9.15;;
35777;SDS011;21899;42.662;23.316;2022-09-17T02:07:53;14.48;;;9.50;;
35777;SDS011;21899;42.662;23.316;2022-09-17T02:10:26;15.73;;;8.75;;
35777;SDS011;21899;42.662;23.316;2022-09-17T02:12:57;14.13;;;7.97;;
35777;SDS011;21899;42.662;23.316;2022-09-17T02:15:36;16.42;;;8.63;;
35777;SDS011;21899;42.662;23.316;2022-09-17T02:18:17;13.18;;;8.73;;
35777;SDS011;21899;42.662;23.316;2022-09-17T02:21:10;13.95;;;8.48;;
35777;SDS011;21899;42.662;23.316;2022-09-17T02:23:43;20.63;;;8.77;;
35777;SDS011;21899;42.662;23.316;2022-09-17T02:26:21;12.13;;;8.07;;
35777;SDS011;21899;42.662;23.316;2022-09-17T02:28:51;10.80;;;7.22;;
35777;SDS011;21899;42.662;23.316;2022-09-17T02:31:20;12.98;;;7.13;;
35777;SDS011;21899;42.662;23.316;2022-09-17T02:33:47;13.80;;;8.30;;
35777;SDS011;21899;42.662;23.316;2022-09-17T02:36:16;15.82;;;6.82;;
35777;SDS011;21899;42.662;23.316;2022-09-17T02:38:43;12.88;;;6.97;;
35777;SDS011;21899;42.662;23.316;2022-09-17T02:46:32;10.73;;;7.40;;
35777;SDS011;21899;42.662;23.316;2022-09-17T02:57:44;14.00;;;9.43;;
35777;SDS011;21899;42.662;23.316;2022-09-17T03:00:18;16.95;;;9.40;;
35777;SDS011;21899;42.662;23.316;2022-09-17T03:05:22;14.30;;;8.32;;
35777;SDS011;21899;42.662;23.316;2022-09-17T03:07:49;16.20;;;9.20;;
35777;SDS011;21899;42.662;23.316;2022-09-17T03:10:14;16.00;;;9.52;;
35777;SDS011;21899;42.662;23.316;2022-09-17T03:12:40;14.93;;;8.02;;
35777;SDS011;21899;42.662;23.316;2022-09-17T03:15:06;15.23;;;8.55;;
35777;SDS011;21899;42.662;23.316;2022-09-17T03:17:33;9.13;;;6.95;;
35777;SDS011;21899;42.662;23.316;2022-09-17T03:19:58;13.00;;;7.78;;
35777;SDS011;21899;42.662;23.316;2022-09-17T03:22:24;16.42;;;7.80;;
35777;SDS011;21899;42.662;23.316;2022-09-17T03:24:49;11.68;;;6.45;;
35777;SDS011;21899;42.662;23.316;2022-09-17T03:27:15;12.27;;;6.82;;
35777;SDS011;21899;42.662;23.316;2022-09-17T03:29:40;11.68;;;7.00;;
35777;SDS011;21899;42.662;23.316;2022-09-17T03:32:05;13.07;;;6.78;;
35777;SDS011;21899;42.662;23.316;2022-09-17T03:34:31;15.25;;;6.97;;
35777;SDS011;21899;42.662;23.316;2022-09-17T03:36:57;14.43;;;8.30;;
35777;SDS011;21899;42.662;23.316;2022-09-17T03:39:22;11.80;;;7.70;;
35777;SDS011;21899;42.662;23.316;2022-09-17T03:41:48;13.20;;;8.23;;
35777;SDS011;21899;42.662;23.316;2022-09-17T03:44:13;8.65;;;5.88;;
35777;SDS011;21899;42.662;23.316;2022-09-17T03:46:39;10.02;;;6.90;;
35777;SDS011;21899;42.662;23.316;2022-09-17T03:49:05;14.32;;;6.95;;
35777;SDS011;21899;42.662;23.316;2022-09-17T03:51:31;9.73;;;6.60;;
35777;SDS011;21899;42.662;23.316;2022-09-17T03:53:56;13.77;;;5.47;;
35777;SDS011;21899;42.662;23.316;2022-09-17T03:56:22;10.93;;;5.47;;
35777;SDS011;21899;42.662;23.316;2022-09-17T03:58:47;8.93;;;5.38;;
35777;SDS011;21899;42.662;23.316;2022-09-17T04:01:13;9.75;;;5.63;;
35777;SDS011;21899;42.662;23.316;2022-09-17T04:03:38;7.97;;;5.28;;
35777;SDS011;21899;42.662;23.316;2022-09-17T04:06:04;8.85;;;5.38;;
35777;SDS011;21899;42.662;23.316;2022-09-17T04:08:29;15.68;;;6.20;;
35777;SDS011;21899;42.662;23.316;2022-09-17T04:10:55;7.90;;;5.10;;
35777;SDS011;21899;42.662;23.316;2022-09-17T04:13:20;8.20;;;5.38;;
35777;SDS011;21899;42.662;23.316;2022-09-17T04:15:46;9.85;;;4.95;;
35777;SDS011;21899;42.662;23.316;2022-09-17T04:18:12;10.90;;;5.25;;
35777;SDS011;21899;42.662;23.316;2022-09-17T04:20:37;11.57;;;4.90;;
35777;SDS011;21899;42.662;23.316;2022-09-17T04:23:03;9.35;;;5.53;;
35777;SDS011;21899;42.662;23.316;2022-09-17T04:25:31;12.30;;;5.03;;
35777;SDS011;21899;42.662;23.316;2022-09-17T04:27:56;8.15;;;5.18;;
35777;SDS011;21899;42.662;23.316;2022-09-17T04:30:21;11.35;;;5.63;;
35777;SDS011;21899;42.662;23.316;2022-09-17T04:32:47;12.07;;;6.13;;
35777;SDS011;21899;42.662;23.316;2022-09-17T04:35:12;11.52;;;6.43;;
35777;SDS011;21899;42.662;23.316;2022-09-17T04:37:38;11.95;;;5.65;;
35777;SDS011;21899;42.662;23.316;2022-09-17T04:40:04;11.82;;;6.35;;
35777;SDS011;21899;42.662;23.316;2022-09-17T04:42:30;9.80;;;6.15;;
35777;SDS011;21899;42.662;23.316;2022-09-17T04:44:56;12.00;;;6.68;;
35777;SDS011;21899;42.662;23.316;2022-09-17T04:47:22;13.88;;;7.38;;
35777;SDS011;21899;42.662;23.316;2022-09-17T04:49:48;16.42;;;7.05;;
35777;SDS011;21899;42.662;23.316;2022-09-17T04:52:13;15.48;;;7.97;;
35777;SDS011;21899;42.662;23.316;2022-09-17T04:54:39;12.85;;;6.90;;
35777;SDS011;21899;42.662;23.316;2022-09-17T04:57:05;11.57;;;6.20;;
35777;SDS011;21899;42.662;23.316;2022-09-17T04:59:30;14.00;;;5.90;;
35777;SDS011;21899;42.662;23.316;2022-09-17T05:01:56;12.07;;;5.43;;
35777;SDS011;21899;42.662;23.316;2022-09-17T05:04:21;12.57;;;6.00;;
35777;SDS011;21899;42.662;23.316;2022-09-17T05:06:46;11.40;;;4.90;;
35777;SDS011;21899;42.662;23.316;2022-09-17T05:09:12;13.45;;;5.00;;
35777;SDS011;21899;42.662;23.316;2022-09-17T05:11:38;11.57;;;4.75;;
35777;SDS011;21899;42.662;23.316;2022-09-17T05:14:04;6.63;;;3.50;;
35777;SDS011;21899;42.662;23.316;2022-09-17T05:16:29;11.57;;;4.28;;
35777;SDS011;21899;42.662;23.316;2022-09-17T05:18:55;14.25;;;4.43;;
35777;SDS011;21899;42.662;23.316;2022-09-17T05:21:22;11.25;;;3.30;;
35777;SDS011;21899;42.662;23.316;2022-09-17T05:23:47;12.18;;;4.10;;
35777;SDS011;21899;42.662;23.316;2022-09-17T05:26:13;12.38;;;3.63;;
35777;SDS011;21899;42.662;23.316;2022-09-17T05:28:39;8.68;;;3.08;;
35777;SDS011;21899;42.662;23.316;2022-09-17T05:31:05;11.90;;;3.83;;
35777;SDS011;21899;42.662;23.316;2022-09-17T05:33:30;7.93;;;4.03;;
35777;SDS011;21899;42.662;23.316;2022-09-17T05:35:56;13.80;;;3.95;;
35777;SDS011;21899;42.662;23.316;2022-09-17T05:38:21;8.57;;;4.65;;
35777;SDS011;21899;42.662;23.316;2022-09-17T05:40:46;12.05;;;4.72;;
35777;SDS011;21899;42.662;23.316;2022-09-17T05:43:13;15.25;;;4.53;;
35777;SDS011;21899;42.662;23.316;2022-09-17T05:45:39;12.27;;;4.93;;
35777;SDS011;21899;42.662;23.316;2022-09-17T05:48:05;16.33;;;5.60;;
35777;SDS011;21899;42.662;23.316;2022-09-17T05:50:33;11.52;;;5.00;;
35777;SDS011;21899;42.662;23.316;2022-09-17T05:53:06;13.20;;;4.20;;
35777;SDS011;21899;42.662;23.316;2022-09-17T05:55:34;9.57;;;4.63;;
35777;SDS011;21899;42.662;23.316;2022-09-17T05:58:07;8.85;;;4.43;;
35777;SDS011;21899;42.662;23.316;2022-09-17T06:00:33;13.48;;;4.53;;
35777;SDS011;21899;42.662;23.316;2022-09-17T06:02:59;9.88;;;4.55;;
35777;SDS011;21899;42.662;23.316;2022-09-17T06:05:24;14.07;;;4.97;;
35777;SDS011;21899;42.662;23.316;2022-09-17T06:07:49;14.80;;;5.25;;
35777;SDS011;21899;42.662;23.316;2022-09-17T06:10:15;9.00;;;3.50;;
35777;SDS011;21899;42.662;23.316;2022-09-17T06:12:41;11.57;;;4.30;;
35777;SDS011;21899;42.662;23.316;2022-09-17T06:15:06;10.85;;;4.28;;
35777;SDS011;21899;42.662;23.316;2022-09-17T06:17:33;16.35;;;5.40;;
35777;SDS011;21899;42.662;23.316;2022-09-17T06:19:59;9.18;;;4.22;;
35777;SDS011;21899;42.662;23.316;2022-09-17T06:22:24;14.48;;;5.07;;
35777;SDS011;21899;42.662;23.316;2022-09-17T06:24:50;11.85;;;5.00;;
35777;SDS011;21899;42.662;23.316;2022-09-17T06:27:15;17.45;;;5.35;;
35777;SDS011;21899;42.662;23.316;2022-09-17T06:29:44;13.20;;;5.57;;
35777;SDS011;21899;42.662;23.316;2022-09-17T06:32:09;13.93;;;6.43;;
35777;SDS011;21899;42.662;23.316;2022-09-17T06:34:37;13.45;;;5.78;;
35777;SDS011;21899;42.662;23.316;2022-09-17T06:37:03;12.60;;;4.93;;
35777;SDS011;21899;42.662;23.316;2022-09-17T06:39:29;12.48;;;5.22;;
35777;SDS011;21899;42.662;23.316;2022-09-17T06:41:57;10.05;;;4.40;;
35777;SDS011;21899;42.662;23.316;2022-09-17T06:44:26;10.15;;;4.70;;
35777;SDS011;21899;42.662;23.316;2022-09-17T06:46:52;9.38;;;4.45;;
35777;SDS011;21899;42.662;23.316;2022-09-17T06:49:17;8.88;;;3.63;;
35777;SDS011;21899;42.662;23.316;2022-09-17T06:51:46;11.98;;;3.70;;
35777;SDS011;21899;42.662;23.316;2022-09-17T06:54:11;8.98;;;3.65;;
35777;SDS011;21899;42.662;23.316;2022-09-17T06:56:37;8.27;;;4.43;;
35777;SDS011;21899;42.662;23.316;2022-09-17T06:59:02;11.70;;;4.45;;
35777;SDS011;21899;42.662;23.316;2022-09-17T07:01:28;10.52;;;4.45;;
35777;SDS011;21899;42.662;23.316;2022-09-17T07:03:53;13.70;;;6.32;;
35777;SDS011;21899;42.662;23.316;2022-09-17T07:06:19;15.63;;;7.25;;
35777;SDS011;21899;42.662;23.316;2022-09-17T07:08:45;10.80;;;6.47;;
35777;SDS011;21899;42.662;23.316;2022-09-17T07:11:11;16.55;;;6.78;;
35777;SDS011;21899;42.662;23.316;2022-09-17T07:13:37;17.52;;;6.72;;
35777;SDS011;21899;42.662;23.316;2022-09-17T07:16:02;16.55;;;6.85;;
35777;SDS011;21899;42.662;23.316;2022-09-17T07:18:29;14.18;;;6.18;;
35777;SDS011;21899;42.662;23.316;2022-09-17T07:20:58;10.70;;;5.30;;
35777;SDS011;21899;42.662;23.316;2022-09-17T07:23:29;11.10;;;5.05;;
35777;SDS011;21899;42.662;23.316;2022-09-17T07:25:57;8.95;;;4.38;;
35777;SDS011;21899;42.662;23.316;2022-09-17T07:28:25;11.57;;;5.80;;
35777;SDS011;21899;42.662;23.316;2022-09-17T07:30:51;18.63;;;8.15;;
35777;SDS011;21899;42.662;23.316;2022-09-17T07:33:18;16.77;;;7.22;;
35777;SDS011;21899;42.662;23.316;2022-09-17T07:36:20;17.50;;;7.03;;
35777;SDS011;21899;42.662;23.316;2022-09-17T07:38:41;16.70;;;7.85;;
35777;SDS011;21899;42.662;23.316;2022-09-17T07:41:12;12.73;;;6.57;;
35777;SDS011;21899;42.662;23.316;2022-09-17T07:43:38;12.38;;;6.25;;
35777;SDS011;21899;42.662;23.316;2022-09-17T07:46:04;12.80;;;6.07;;
35777;SDS011;21899;42.662;23.316;2022-09-17T07:48:31;11.77;;;6.13;;
35777;SDS011;21899;42.662;23.316;2022-09-17T07:50:59;11.30;;;6.10;;
35777;SDS011;21899;42.662;23.316;2022-09-17T07:53:24;10.82;;;6.63;;
35777;SDS011;21899;42.662;23.316;2022-09-17T07:58:17;14.43;;;5.72;;
35777;SDS011;21899;42.662;23.316;2022-09-17T08:00:43;10.85;;;5.63;;
35777;SDS011;21899;42.662;23.316;2022-09-17T08:03:08;10.88;;;5.78;;
35777;SDS011;21899;42.662;23.316;2022-09-17T08:05:33;10.30;;;5.53;;
35777;SDS011;21899;42.662;23.316;2022-09-17T08:07:59;15.27;;;6.10;;
35777;SDS011;21899;42.662;23.316;2022-09-17T08:10:24;15.23;;;5.93;;
35777;SDS011;21899;42.662;23.316;2022-09-17T08:12:53;14.13;;;6.57;;
35777;SDS011;21899;42.662;23.316;2022-09-17T08:15:20;17.45;;;6.78;;
35777;SDS011;21899;42.662;23.316;2022-09-17T08:17:46;15.18;;;5.80;;
35777;SDS011;21899;42.662;23.316;2022-09-17T08:20:12;16.52;;;5.90;;
35777;SDS011;21899;42.662;23.316;2022-09-17T08:22:39;11.20;;;5.22;;
35777;SDS011;21899;42.662;23.316;2022-09-17T08:25:06;15.48;;;5.97;;
35777;SDS011;21899;42.662;23.316;2022-09-17T08:27:33;12.40;;;6.13;;
35777;SDS011;21899;42.662;23.316;2022-09-17T08:30:04;11.38;;;5.70;;
35777;SDS011;21899;42.662;23.316;2022-09-17T08:32:31;14.00;;;5.25;;
35777;SDS011;21899;42.662;23.316;2022-09-17T08:34:56;6.38;;;3.83;;
35777;SDS011;21899;42.662;23.316;2022-09-17T08:37:21;9.27;;;4.13;;
35777;SDS011;21899;42.662;23.316;2022-09-17T08:39:47;9.25;;;4.00;;
35777;SDS011;21899;42.662;23.316;2022-09-17T08:42:18;8.07;;;3.47;;
35777;SDS011;21899;42.662;23.316;2022-09-17T08:44:51;10.43;;;3.97;;
35777;SDS011;21899;42.662;23.316;2022-09-17T08:47:32;12.50;;;4.00;;
35777;SDS011;21899;42.662;23.316;2022-09-17T08:50:00;9.70;;;3.50;;
35777;SDS011;21899;42.662;23.316;2022-09-17T08:52:47;7.47;;;3.50;;
35777;SDS011;21899;42.662;23.316;2022-09-17T09:06:29;10.32;;;3.97;;
35777;SDS011;21899;42.662;23.316;2022-09-17T09:08:59;8.38;;;3.92;;
35777;SDS011;21899;42.662;23.316;2022-09-17T09:11:29;10.25;;;3.42;;
35777;SDS011;21899;42.662;23.316;2022-09-17T09:14:06;11.38;;;3.80;;
35777;SDS011;21899;42.662;23.316;2022-09-17T09:16:40;11.48;;;3.45;;
35777;SDS011;21899;42.662;23.316;2022-09-17T09:24:24;7.85;;;3.70;;
35777;SDS011;21899;42.662;23.316;2022-09-17T09:27:02;10.40;;;3.90;;
35777;SDS011;21899;42.662;23.316;2022-09-17T09:35:19;13.35;;;4.68;;
35777;SDS011;21899;42.662;23.316;2022-09-17T09:37:52;8.45;;;4.28;;
35777;SDS011;21899;42.662;23.316;2022-09-17T09:43:17;11.93;;;4.82;;
35777;SDS011;21899;42.662;23.316;2022-09-17T09:46:08;12.55;;;4.72;;
35777;SDS011;21899;42.662;23.316;2022-09-17T09:56:58;11.70;;;4.95;;
35777;SDS011;21899;42.662;23.316;2022-09-17T09:59:31;11.40;;;5.88;;
35777;SDS011;21899;42.662;23.316;2022-09-17T10:01:58;11.48;;;4.50;;
35777;SDS011;21899;42.662;23.316;2022-09-17T10:04:24;11.82;;;4.60;;
35777;SDS011;21899;42.662;23.316;2022-09-17T10:06:52;15.30;;;6.15;;
35777;SDS011;21899;42.662;23.316;2022-09-17T10:09:20;11.50;;;6.15;;
35777;SDS011;21899;42.662;23.316;2022-09-17T10:12:19;13.85;;;6.78;;
35777;SDS011;21899;42.662;23.316;2022-09-17T10:14:42;14.30;;;6.75;;
35777;SDS011;21899;42.662;23.316;2022-09-17T10:17:17;21.83;;;6.97;;
35777;SDS011;21899;42.662;23.316;2022-09-17T10:19:44;14.27;;;7.45;;
35777;SDS011;21899;42.662;23.316;2022-09-17T10:24:46;16.20;;;8.45;;
35777;SDS011;21899;42.662;23.316;2022-09-17T10:27:13;19.73;;;8.18;;
35777;SDS011;21899;42.662;23.316;2022-09-17T10:29:42;13.27;;;8.18;;
35777;SDS011;21899;42.662;23.316;2022-09-17T10:32:17;16.17;;;7.75;;
35777;SDS011;21899;42.662;23.316;2022-09-17T10:34:56;15.60;;;8.57;;
35777;SDS011;21899;42.662;23.316;2022-09-17T10:42:45;12.88;;;6.95;;
35777;SDS011;21899;42.662;23.316;2022-09-17T10:45:25;11.57;;;7.55;;
35777;SDS011;21899;42.662;23.316;2022-09-17T10:47:52;15.68;;;7.40;;
35777;SDS011;21899;42.662;23.316;2022-09-17T10:50:20;13.15;;;6.57;;
35777;SDS011;21899;42.662;23.316;2022-09-17T10:52:51;10.95;;;6.30;;
35777;SDS011;21899;42.662;23.316;2022-09-17T10:55:36;10.38;;;5.38;;
35777;SDS011;21899;42.662;23.316;2022-09-17T11:06:34;7.68;;;4.63;;
35777;SDS011;21899;42.662;23.316;2022-09-17T11:14:54;11.85;;;5.65;;
35777;SDS011;21899;42.662;23.316;2022-09-17T11:29:16;11.73;;;7.50;;
35777;SDS011;21899;42.662;23.316;2022-09-17T11:31:53;10.38;;;5.20;;
35777;SDS011;21899;42.662;23.316;2022-09-17T11:34:28;8.80;;;5.70;;
35777;SDS011;21899;42.662;23.316;2022-09-17T11:37:03;14.20;;;5.95;;
35777;SDS011;21899;42.662;23.316;2022-09-17T11:39:46;9.95;;;5.78;;
35777;SDS011;21899;42.662;23.316;2022-09-17T11:42:23;13.98;;;7.00;;
35777;SDS011;21899;42.662;23.316;2022-09-17T11:44:57;9.10;;;4.40;;
35777;SDS011;21899;42.662;23.316;2022-09-17T11:47:46;10.05;;;4.93;;
35777;SDS011;21899;42.662;23.316;2022-09-17T11:53:08;10.48;;;5.00;;
35777;SDS011;21899;42.662;23.316;2022-09-17T11:59:58;11.55;;;6.97;;
35777;SDS011;21899;42.662;23.316;2022-09-17T12:05:20;10.13;;;6.00;;
35777;SDS011;21899;42.662;23.316;2022-09-17T12:08:04;13.55;;;8.10;;
35777;SDS011;21899;42.662;23.316;2022-09-17T12:16:12;8.98;;;3.40;;
35777;SDS011;21899;42.662;23.316;2022-09-17T12:21:09;10.18;;;4.68;;
35777;SDS011;21899;42.662;23.316;2022-09-17T12:23:44;8.77;;;5.50;;
35777;SDS011;21899;42.662;23.316;2022-09-17T12:35:04;6.72;;;4.63;;
35777;SDS011;21899;42.662;23.316;2022-09-17T12:59:52;5.18;;;2.45;;
35777;SDS011;21899;42.662;23.316;2022-09-17T13:02:42;7.10;;;2.80;;
35777;SDS011;21899;42.662;23.316;2022-09-17T13:21:50;2.80;;;1.30;;
35777;SDS011;21899;42.662;23.316;2022-09-17T13:24:20;3.38;;;1.75;;
35777;SDS011;21899;42.662;23.316;2022-09-17T13:26:49;5.32;;;2.55;;
35777;SDS011;21899;42.662;23.316;2022-09-17T13:33:09;10.35;;;2.95;;
35777;SDS011;21899;42.662;23.316;2022-09-17T13:40:34;8.70;;;3.10;;
35777;SDS011;21899;42.662;23.316;2022-09-17T13:45:32;7.47;;;1.58;;
35777;SDS011;21899;42.662;23.316;2022-09-17T13:48:19;5.25;;;2.15;;
35777;SDS011;21899;42.662;23.316;2022-09-17T13:50:47;3.75;;;1.25;;
35777;SDS011;21899;42.662;23.316;2022-09-17T14:01:00;2.67;;;1.13;;
35777;SDS011;21899;42.662;23.316;2022-09-17T14:11:51;7.90;;;2.60;;
35777;SDS011;21899;42.662;23.316;2022-09-17T14:24:35;6.13;;;2.10;;
35777;SDS011;21899;42.662;23.316;2022-09-17T14:32:00;5.85;;;2.15;;
35777;SDS011;21899;42.662;23.316;2022-09-17T14:34:26;5.40;;;2.10;;
35777;SDS011;21899;42.662;23.316;2022-09-17T14:36:52;6.85;;;2.33;;
35777;SDS011;21899;42.662;23.316;2022-09-17T14:39:22;10.52;;;2.22;;
35777;SDS011;21899;42.662;23.316;2022-09-17T14:41:51;4.05;;;2.30;;
35777;SDS011;21899;42.662;23.316;2022-09-17T14:44:18;8.23;;;2.63;;
35777;SDS011;21899;42.662;23.316;2022-09-17T14:46:55;4.28;;;2.05;;
35777;SDS011;21899;42.662;23.316;2022-09-17T14:49:25;7.55;;;2.50;;
35777;SDS011;21899;42.662;23.316;2022-09-17T14:51:53;7.78;;;3.30;;
35777;SDS011;21899;42.662;23.316;2022-09-17T14:54:27;8.93;;;2.88;;
35777;SDS011;21899;42.662;23.316;2022-09-17T15:02:35;9.07;;;2.85;;
35777;SDS011;21899;42.662;23.316;2022-09-17T15:05:01;4.30;;;2.58;;
35777;SDS011;21899;42.662;23.316;2022-09-17T15:07:40;5.60;;;2.88;;
35777;SDS011;21899;42.662;23.316;2022-09-17T15:10:08;7.35;;;3.47;;
35777;SDS011;21899;42.662;23.316;2022-09-17T15:12:38;6.82;;;3.08;;
35777;SDS011;21899;42.662;23.316;2022-09-17T15:15:04;10.35;;;3.50;;
35777;SDS011;21899;42.662;23.316;2022-09-17T15:17:30;6.68;;;3.30;;
35777;SDS011;21899;42.662;23.316;2022-09-17T15:19:57;5.93;;;3.45;;
35777;SDS011;21899;42.662;23.316;2022-09-17T15:22:27;6.55;;;3.30;;
35777;SDS011;21899;42.662;23.316;2022-09-17T15:25:02;8.23;;;3.67;;
35777;SDS011;21899;42.662;23.316;2022-09-17T15:27:36;7.75;;;3.80;;
35777;SDS011;21899;42.662;23.316;2022-09-17T15:30:08;11.75;;;3.60;;
35777;SDS011;21899;42.662;23.316;2022-09-17T15:32:37;6.72;;;3.75;;
35777;SDS011;21899;42.662;23.316;2022-09-17T15:37:42;6.88;;;2.88;;
35777;SDS011;21899;42.662;23.316;2022-09-17T15:40:13;5.35;;;3.13;;
35777;SDS011;21899;42.662;23.316;2022-09-17T15:42:48;6.18;;;3.45;;
35777;SDS011;21899;42.662;23.316;2022-09-17T15:45:26;6.85;;;2.95;;
35777;SDS011;21899;42.662;23.316;2022-09-17T15:48:03;8.68;;;2.90;;
35777;SDS011;21899;42.662;23.316;2022-09-17T15:50:29;6.60;;;3.28;;
35777;SDS011;21899;42.662;23.316;2022-09-17T15:55:39;3.60;;;2.60;;
35777;SDS011;21899;42.662;23.316;2022-09-17T15:58:27;5.22;;;3.35;;
35777;SDS011;21899;42.662;23.316;2022-09-17T16:08:44;7.50;;;2.55;;
35777;SDS011;21899;42.662;23.316;2022-09-17T16:11:14;6.68;;;3.10;;
35777;SDS011;21899;42.662;23.316;2022-09-17T16:13:46;7.10;;;3.42;;
35777;SDS011;21899;42.662;23.316;2022-09-17T16:16:15;6.13;;;3.13;;
35777;SDS011;21899;42.662;23.316;2022-09-17T16:18:42;6.45;;;3.80;;
35777;SDS011;21899;42.662;23.316;2022-09-17T16:21:11;8.48;;;3.60;;
35777;SDS011;21899;42.662;23.316;2022-09-17T16:23:38;8.23;;;3.22;;
35777;SDS011;21899;42.662;23.316;2022-09-17T16:26:03;8.95;;;4.63;;
35777;SDS011;21899;42.662;23.316;2022-09-17T16:28:30;7.90;;;3.80;;
35777;SDS011;21899;42.662;23.316;2022-09-17T16:30:56;6.75;;;3.90;;
35777;SDS011;21899;42.662;23.316;2022-09-17T16:33:21;9.05;;;4.20;;
35777;SDS011;21899;42.662;23.316;2022-09-17T16:35:47;5.47;;;2.67;;
35777;SDS011;21899;42.662;23.316;2022-09-17T16:38:13;5.90;;;2.85;;
35777;SDS011;21899;42.662;23.316;2022-09-17T16:40:39;5.82;;;2.85;;
35777;SDS011;21899;42.662;23.316;2022-09-17T16:43:10;6.18;;;3.08;;
35777;SDS011;21899;42.662;23.316;2022-09-17T16:45:36;9.75;;;4.70;;
35777;SDS011;21899;42.662;23.316;2022-09-17T16:48:01;6.00;;;2.78;;
35777;SDS011;21899;42.662;23.316;2022-09-17T16:50:27;7.68;;;2.72;;
35777;SDS011;21899;42.662;23.316;2022-09-17T16:52:53;10.48;;;3.65;;
35777;SDS011;21899;42.662;23.316;2022-09-17T16:55:19;9.07;;;3.70;;
35777;SDS011;21899;42.662;23.316;2022-09-17T16:57:46;6.90;;;3.67;;
35777;SDS011;21899;42.662;23.316;2022-09-17T17:00:13;9.95;;;3.67;;
35777;SDS011;21899;42.662;23.316;2022-09-17T17:02:42;7.07;;;3.40;;
35777;SDS011;21899;42.662;23.316;2022-09-17T17:05:08;6.50;;;3.63;;
35777;SDS011;21899;42.662;23.316;2022-09-17T17:07:37;7.55;;;3.63;;
35777;SDS011;21899;42.662;23.316;2022-09-17T17:10:03;11.43;;;5.70;;
35777;SDS011;21899;42.662;23.316;2022-09-17T17:12:29;18.27;;;6.65;;
35777;SDS011;21899;42.662;23.316;2022-09-17T17:14:55;8.55;;;4.35;;
35777;SDS011;21899;42.662;23.316;2022-09-17T17:17:20;10.52;;;4.80;;
35777;SDS011;21899;42.662;23.316;2022-09-17T17:19:46;7.05;;;4.10;;
35777;SDS011;21899;42.662;23.316;2022-09-17T17:22:12;7.13;;;3.47;;
35777;SDS011;21899;42.662;23.316;2022-09-17T17:24:38;8.73;;;4.40;;
35777;SDS011;21899;42.662;23.316;2022-09-17T17:27:04;10.75;;;4.78;;
35777;SDS011;21899;42.662;23.316;2022-09-17T17:29:29;12.18;;;5.70;;
35777;SDS011;21899;42.662;23.316;2022-09-17T17:31:55;6.43;;;3.47;;
35777;SDS011;21899;42.662;23.316;2022-09-17T17:34:20;7.63;;;3.17;;
35777;SDS011;21899;42.662;23.316;2022-09-17T17:36:49;7.18;;;3.28;;
35777;SDS011;21899;42.662;23.316;2022-09-17T17:39:15;5.53;;;3.10;;
35777;SDS011;21899;42.662;23.316;2022-09-17T17:41:40;10.40;;;4.75;;
35777;SDS011;21899;42.662;23.316;2022-09-17T17:44:07;11.25;;;4.78;;
35777;SDS011;21899;42.662;23.316;2022-09-17T17:46:35;6.68;;;3.15;;
35777;SDS011;21899;42.662;23.316;2022-09-17T17:49:01;7.05;;;3.65;;
35777;SDS011;21899;42.662;23.316;2022-09-17T17:51:26;8.48;;;4.03;;
35777;SDS011;21899;42.662;23.316;2022-09-17T17:53:52;6.10;;;3.53;;
35777;SDS011;21899;42.662;23.316;2022-09-17T17:56:17;5.78;;;2.72;;
35777;SDS011;21899;42.662;23.316;2022-09-17T17:58:44;5.55;;;3.10;;
35777;SDS011;21899;42.662;23.316;2022-09-17T18:01:11;7.55;;;3.72;;
35777;SDS011;21899;42.662;23.316;2022-09-17T18:03:39;9.25;;;2.65;;
35777;SDS011;21899;42.662;23.316;2022-09-17T18:06:05;6.43;;;2.83;;
35777;SDS011;21899;42.662;23.316;2022-09-17T18:08:31;3.92;;;2.50;;
35777;SDS011;21899;42.662;23.316;2022-09-17T18:10:59;8.82;;;3.10;;
35777;SDS011;21899;42.662;23.316;2022-09-17T18:13:27;4.85;;;2.95;;
35777;SDS011;21899;42.662;23.316;2022-09-17T18:15:54;10.88;;;3.10;;
35777;SDS011;21899;42.662;23.316;2022-09-17T18:18:22;5.18;;;2.60;;
35777;SDS011;21899;42.662;23.316;2022-09-17T18:20:50;8.70;;;3.22;;
35777;SDS011;21899;42.662;23.316;2022-09-17T18:23:17;6.03;;;2.80;;
35777;SDS011;21899;42.662;23.316;2022-09-17T18:25:56;5.47;;;2.45;;
35777;SDS011;21899;42.662;23.316;2022-09-17T18:28:23;6.95;;;2.75;;
35777;SDS011;21899;42.662;23.316;2022-09-17T18:30:50;4.28;;;2.25;;
35777;SDS011;21899;42.662;23.316;2022-09-17T18:33:19;5.28;;;2.72;;
35777;SDS011;21899;42.662;23.316;2022-09-17T18:35:46;5.15;;;2.47;;
35777;SDS011;21899;42.662;23.316;2022-09-17T18:38:12;4.90;;;3.20;;
35777;SDS011;21899;42.662;23.316;2022-09-17T18:40:39;5.82;;;3.85;;
35777;SDS011;21899;42.662;23.316;2022-09-17T18:43:04;8.05;;;4.47;;
35777;SDS011;21899;42.662;23.316;2022-09-17T18:45:31;11.82;;;4.28;;